createdAt,value
2019-04-05T00:00:16.310Z,84.45
2019-04-05T00:02:45.802Z,84.53
2019-04-05T00:05:15.612Z,84.65
2019-04-05T00:07:45.188Z,84.59
2019-04-05T00:10:15.297Z,84.50
2019-04-05T00:12:44.735Z,84.50
2019-04-05T00:15:15.890Z,84.46
2019-04-05T00:17:45.509Z,84.50
2019-04-05T00:20:15.916Z,84.70
2019-04-05T00:22:45.348Z,84.83
2019-04-05T00:25:14.802Z,85.02
2019-04-05T00:27:44.229Z,85.21
2019-04-05T00:30:13.845Z,85.29
2019-04-05T00:32:43.269Z,85.34
2019-04-05T00:35:12.741Z,85.38
2019-04-05T00:37:42.173Z,85.39
2019-04-05T00:40:12.291Z,85.39
2019-04-05T00:42:41.746Z,85.26
2019-04-05T00:45:11.649Z,85.23
2019-04-05T00:47:41.109Z,85.27
2019-04-05T00:50:11.678Z,85.37
2019-04-05T00:52:41.288Z,85.46
2019-04-05T00:55:10.897Z,85.33
2019-04-05T00:57:40.402Z,85.30
2019-04-05T01:00:10.619Z,85.16
2019-04-05T01:02:40.122Z,85.10
2019-04-05T01:05:10.344Z,84.91
2019-04-05T01:07:39.912Z,84.96
2019-04-05T01:10:10.198Z,84.80
2019-04-05T01:12:40.794Z,84.91
2019-04-05T01:15:12.183Z,84.95
2019-04-05T01:17:42.223Z,84.98
2019-04-05T01:20:12.411Z,84.93
2019-04-05T01:22:43.826Z,85.02
2019-04-05T01:25:14.597Z,84.98
2019-04-05T01:27:48.211Z,84.96
2019-04-05T01:30:17.101Z,85.18
2019-04-05T01:32:47.366Z,85.32
2019-04-05T01:35:16.901Z,85.50
2019-04-05T01:37:47.040Z,85.61
2019-04-05T01:40:16.737Z,85.64
2019-04-05T01:42:46.935Z,85.55
2019-04-05T01:45:16.461Z,85.48
2019-04-05T01:47:46.006Z,85.39
2019-04-05T01:50:16.407Z,85.36
2019-04-05T01:52:46.373Z,85.34
2019-04-05T01:55:16.216Z,85.36
2019-04-05T01:57:45.651Z,85.39
2019-04-05T02:00:16.561Z,85.27
2019-04-05T02:02:46.369Z,85.19
2019-04-05T02:05:15.949Z,84.96
2019-04-05T02:07:45.514Z,84.96
2019-04-05T02:10:15.357Z,84.97
2019-04-05T02:12:44.859Z,84.84
2019-04-05T02:15:28.854Z,84.82
2019-04-05T02:17:58.621Z,84.76
2019-04-05T02:20:28.319Z,84.67
2019-04-05T02:22:57.926Z,84.65
2019-04-05T02:25:27.523Z,84.61
2019-04-05T02:27:57.090Z,84.58
2019-04-05T02:30:27.384Z,84.54
2019-04-05T02:32:57.896Z,84.45
2019-04-05T02:35:27.514Z,84.44
2019-04-05T02:37:57.099Z,84.41
2019-04-05T02:40:28.580Z,84.38
2019-04-05T02:42:59.975Z,84.36
2019-04-05T02:45:32.488Z,84.30
2019-04-05T02:48:05.469Z,84.24
2019-04-05T02:50:38.326Z,84.11
2019-04-05T02:53:10.348Z,84.02
2019-04-05T02:55:42.530Z,84.00
2019-04-05T02:58:14.179Z,83.87
2019-04-05T03:00:45.027Z,83.75
2019-04-05T03:03:16.406Z,83.63
2019-04-05T03:05:46.908Z,83.60
2019-04-05T03:08:17.297Z,83.80
2019-04-05T03:10:58.568Z,83.83
2019-04-05T03:13:30.436Z,83.86
2019-04-05T03:16:02.738Z,83.97
2019-04-05T03:18:34.631Z,84.21
2019-04-05T03:21:07.538Z,84.26
2019-04-05T03:23:40.368Z,84.28
2019-04-05T03:26:12.830Z,84.33
2019-04-05T03:28:44.138Z,84.16
2019-04-05T03:31:14.046Z,84.13
2019-04-05T03:33:43.832Z,84.24
2019-04-05T03:36:13.700Z,84.37
2019-04-05T03:38:43.166Z,84.39
2019-04-05T03:41:12.943Z,84.43
2019-04-05T03:43:42.662Z,84.66
2019-04-05T03:46:12.566Z,84.81
2019-04-05T03:48:42.563Z,84.98
2019-04-05T03:51:12.381Z,84.92
2019-04-05T03:53:42.009Z,84.88
2019-04-05T03:56:11.801Z,84.79
2019-04-05T03:58:41.428Z,84.79
2019-04-05T04:01:11.004Z,84.90
2019-04-05T04:03:40.593Z,85.03
2019-04-05T04:06:10.488Z,85.31
2019-04-05T04:08:40.373Z,85.54
2019-04-05T04:11:10.630Z,85.49
2019-04-05T04:13:40.216Z,85.53
2019-04-05T04:16:09.968Z,85.40
2019-04-05T04:18:39.878Z,85.35
2019-04-05T04:21:28.874Z,85.41
2019-04-05T04:23:58.926Z,85.51
2019-04-05T04:26:29.085Z,85.48
2019-04-05T04:28:58.545Z,85.53
2019-04-05T04:31:29.383Z,85.60
2019-04-05T04:33:59.610Z,85.71
2019-04-05T04:36:29.555Z,85.75
2019-04-05T04:38:59.121Z,85.72
2019-04-05T04:41:31.886Z,85.85
2019-04-05T04:44:00.686Z,85.84
2019-04-05T04:46:30.620Z,85.91
2019-04-05T04:49:00.263Z,85.97
2019-04-05T04:51:30.460Z,86.02
2019-04-05T04:54:00.260Z,85.95
2019-04-05T04:56:30.327Z,85.82
2019-04-05T04:59:00.536Z,85.59
2019-04-05T05:01:30.247Z,85.52
2019-04-05T05:04:00.172Z,85.46
2019-04-05T05:06:29.861Z,85.25
2019-04-05T05:09:00.064Z,85.30
2019-04-05T05:11:29.993Z,85.33
2019-04-05T05:13:59.585Z,85.34
2019-04-05T05:16:29.586Z,85.31
2019-04-05T05:18:59.485Z,85.33
2019-04-05T05:21:29.155Z,85.24
2019-04-05T05:23:58.987Z,85.38
2019-04-05T05:26:28.634Z,85.38
2019-04-05T05:28:58.650Z,85.10
2019-04-05T05:31:32.493Z,85.01
2019-04-05T05:34:02.158Z,84.96
2019-04-05T05:36:39.546Z,84.82
2019-04-05T05:39:10.639Z,84.61
2019-04-05T05:41:40.185Z,84.26
2019-04-05T05:44:09.646Z,83.96
2019-04-05T05:46:41.266Z,84.10
2019-04-05T05:49:10.457Z,84.17
2019-04-05T05:51:41.456Z,84.35
2019-04-05T05:54:11.010Z,84.30
2019-04-05T05:56:40.620Z,84.12
2019-04-05T05:59:10.060Z,84.05
2019-04-05T06:01:39.831Z,83.98
2019-04-05T06:04:09.301Z,83.94
2019-04-05T06:06:38.764Z,83.80
2019-04-05T06:09:10.529Z,83.78
2019-04-05T06:11:40.074Z,83.82
2019-04-05T06:14:09.559Z,83.84
2019-04-05T06:16:46.269Z,83.75
2019-04-05T06:19:15.927Z,83.63
2019-04-05T06:21:47.074Z,83.55
2019-04-05T06:24:19.152Z,83.56
2019-04-05T06:26:48.773Z,83.43
2019-04-05T06:29:18.299Z,83.48
2019-04-05T06:31:47.732Z,83.46
2019-04-05T06:34:17.307Z,83.56
2019-04-05T06:36:46.725Z,83.67
2019-04-05T06:39:17.160Z,83.62
2019-04-05T06:41:46.686Z,83.70
2019-04-05T06:44:16.540Z,83.52
2019-04-05T06:46:45.966Z,83.52
2019-04-05T06:49:15.399Z,83.71
2019-04-05T06:51:44.963Z,83.81
2019-04-05T06:54:14.422Z,83.85
2019-04-05T06:56:43.846Z,83.74
2019-04-05T06:59:13.300Z,83.42
2019-04-05T07:01:42.971Z,83.11
2019-04-05T07:04:12.435Z,82.95
2019-04-05T07:06:42.069Z,82.82
2019-04-05T07:09:11.515Z,82.42
2019-04-05T07:11:40.932Z,82.37
2019-04-05T07:14:10.563Z,82.26
2019-04-05T07:16:40.236Z,82.34
2019-04-05T07:19:09.973Z,82.60
2019-04-05T07:21:39.503Z,82.67
2019-04-05T07:24:09.046Z,82.78
2019-04-05T07:26:38.599Z,82.81
2019-04-05T07:29:09.603Z,82.90
2019-04-05T07:31:39.049Z,83.17
2019-04-05T07:34:08.596Z,83.15
2019-04-05T07:36:38.036Z,82.96
2019-04-05T07:39:08.125Z,82.77
2019-04-05T07:41:37.794Z,82.84
2019-04-05T07:44:07.256Z,82.94
2019-04-05T07:46:36.734Z,82.85
2019-04-05T07:49:06.320Z,82.66
2019-04-05T07:51:35.753Z,82.46
2019-04-05T07:54:05.357Z,82.58
2019-04-05T07:56:34.814Z,82.72
2019-04-05T07:59:04.424Z,82.86
2019-04-05T08:01:33.918Z,83.16
2019-04-05T08:04:03.540Z,83.18
2019-04-05T08:06:35.579Z,83.26
2019-04-05T08:09:11.390Z,83.15
2019-04-05T08:11:43.651Z,82.81
2019-04-05T08:14:14.131Z,82.28
2019-04-05T08:16:43.633Z,82.19
2019-04-05T08:19:13.348Z,82.04
2019-04-05T08:21:42.781Z,82.16
2019-04-05T08:24:12.237Z,82.23
2019-04-05T08:26:41.716Z,82.45
2019-04-05T08:29:11.276Z,82.61
2019-04-05T08:31:40.935Z,82.44
2019-04-05T08:34:10.398Z,82.12
2019-04-05T08:36:39.910Z,81.72
2019-04-05T08:39:09.389Z,81.89
2019-04-05T08:41:38.851Z,81.70
2019-04-05T08:44:08.555Z,81.83
2019-04-05T08:46:38.058Z,82.08
2019-04-05T08:49:11.092Z,81.95
2019-04-05T08:51:39.922Z,81.90
2019-04-05T08:54:09.352Z,82.23
2019-04-05T08:56:38.889Z,82.31
2019-04-05T08:59:08.359Z,82.43
2019-04-05T09:01:37.807Z,82.44
2019-04-05T09:04:07.324Z,82.42
2019-04-05T09:06:36.773Z,82.07
2019-04-05T09:09:07.590Z,81.87
2019-04-05T09:11:37.110Z,81.88
2019-04-05T09:14:06.584Z,81.82
2019-04-05T09:16:36.133Z,81.62
2019-04-05T09:19:05.703Z,81.42
2019-04-05T09:21:40.238Z,81.33
2019-04-05T09:24:08.135Z,81.20
2019-04-05T09:26:37.656Z,81.17
2019-04-05T09:29:09.279Z,81.13
2019-04-05T09:31:38.715Z,81.25
2019-04-05T09:34:08.185Z,81.25
2019-04-05T09:36:37.676Z,81.10
2019-04-05T09:39:14.967Z,80.93
2019-04-05T09:41:41.395Z,80.61
2019-04-05T09:44:10.954Z,80.42
2019-04-05T09:46:46.861Z,80.17
2019-04-05T09:49:11.825Z,79.82
2019-04-05T09:51:41.416Z,80.32
2019-04-05T09:54:10.987Z,80.54
2019-04-05T09:56:40.888Z,80.55
2019-04-05T09:59:10.312Z,80.49
2019-04-05T10:01:39.819Z,80.47
2019-04-05T10:04:10.277Z,80.52
2019-04-05T10:06:39.771Z,80.34
2019-04-05T10:09:09.465Z,80.44
2019-04-05T10:11:38.937Z,80.34
2019-04-05T10:14:08.584Z,80.45
2019-04-05T10:16:38.186Z,80.47
2019-04-05T10:19:07.809Z,80.23
2019-04-05T10:21:39.688Z,80.05
2019-04-05T10:24:09.100Z,79.62
2019-04-05T10:26:38.562Z,79.69
2019-04-05T10:29:08.044Z,79.57
2019-04-05T10:31:37.667Z,79.91
2019-04-05T10:34:07.150Z,80.05
2019-04-05T10:36:36.624Z,80.02
2019-04-05T10:39:09.328Z,79.95
2019-04-05T10:41:39.028Z,79.81
2019-04-05T10:44:10.224Z,79.85
2019-04-05T10:46:39.817Z,79.95
2019-04-05T10:49:09.518Z,79.98
2019-04-05T10:51:39.083Z,79.97
2019-04-05T10:54:09.568Z,79.83
2019-04-05T10:56:39.305Z,79.64
2019-04-05T10:59:09.186Z,79.32
2019-04-05T11:01:38.754Z,78.93
2019-04-05T11:04:08.241Z,79.11
2019-04-05T11:06:37.717Z,79.34
2019-04-05T11:09:07.956Z,79.11
2019-04-05T11:11:37.625Z,79.27
2019-04-05T11:14:13.640Z,79.43
2019-04-05T11:16:38.514Z,79.23
2019-04-05T11:19:07.958Z,79.20
2019-04-05T11:21:37.434Z,79.20
2019-04-05T11:24:06.867Z,78.84
2019-04-05T11:26:36.482Z,79.04
2019-04-05T11:29:07.861Z,79.54
2019-04-05T11:31:37.492Z,79.22
2019-04-05T11:34:06.943Z,78.53
2019-04-05T11:36:36.851Z,78.31
2019-04-05T11:39:08.839Z,78.12
2019-04-05T11:42:08.168Z,78.09
2019-04-05T11:51:59.726Z,77.88
2019-04-05T11:54:26.963Z,78.13
2019-04-05T11:56:58.875Z,78.60
2019-04-05T11:59:44.966Z,78.51
2019-04-05T12:02:50.117Z,78.76
2019-04-05T12:08:20.144Z,79.35
2019-04-05T12:10:56.418Z,79.42
2019-04-05T12:13:39.943Z,79.60
2019-04-05T12:16:19.594Z,79.78
2019-04-05T12:18:59.033Z,79.66
2019-04-05T12:21:28.255Z,79.47
2019-04-05T12:24:04.557Z,79.49
2019-04-05T12:26:42.521Z,79.57
2019-04-05T12:29:13.093Z,79.65
2019-04-05T12:31:46.035Z,79.33
2019-04-05T12:34:15.864Z,79.07
2019-04-05T12:36:48.380Z,78.88
2019-04-05T12:39:19.772Z,78.70
2019-04-05T12:41:49.353Z,78.55
2019-04-05T12:44:24.756Z,78.44
2019-04-05T12:46:53.440Z,78.38
2019-04-05T12:49:23.370Z,78.10
2019-04-05T12:52:05.268Z,77.85
2019-04-05T12:54:56.106Z,77.80
2019-04-05T12:58:00.686Z,77.61
2019-04-05T13:00:34.668Z,78.08
2019-04-05T13:03:04.624Z,78.20
2019-04-05T13:05:42.299Z,78.30
2019-04-05T13:09:12.336Z,78.36
2019-04-05T13:11:54.483Z,78.52
2019-04-05T13:42:50.194Z,77.63
2019-04-05T13:43:33.159Z,78.33
2019-04-05T13:45:19.940Z,77.42
2019-04-05T13:47:49.635Z,77.13
2019-04-05T13:50:19.640Z,76.76
2019-04-05T13:52:49.509Z,77.00
2019-04-05T13:55:19.307Z,77.25
2019-04-05T13:57:49.680Z,77.00
2019-04-05T14:00:20.553Z,77.00
2019-04-05T14:02:51.356Z,76.83
2019-04-05T14:05:22.270Z,76.93
2019-04-05T14:07:54.666Z,76.57
2019-04-05T14:10:23.732Z,76.53
2019-04-05T14:12:53.429Z,76.39
2019-04-05T14:15:25.448Z,75.83
2019-04-05T14:17:55.370Z,75.84
2019-04-05T14:20:26.180Z,76.01
2019-04-05T14:22:56.788Z,76.19
2019-04-05T14:25:30.136Z,76.19
2019-04-05T14:27:59.629Z,76.02
2019-04-05T14:30:32.444Z,75.71
2019-04-05T14:33:01.522Z,75.13
2019-04-05T14:35:31.997Z,75.23
2019-04-05T14:38:02.347Z,75.19
2019-04-05T14:40:35.100Z,75.30
2019-04-05T14:43:05.438Z,75.29
2019-04-05T14:45:35.019Z,75.13
2019-04-05T14:48:05.626Z,75.10
2019-04-05T14:50:36.694Z,75.10
2019-04-05T14:53:07.218Z,75.01
2019-04-05T14:55:39.575Z,75.17
2019-04-05T14:58:10.629Z,75.25
2019-04-05T15:00:41.195Z,75.27
2019-04-05T15:03:10.962Z,75.45
2019-04-05T15:05:41.363Z,75.45
2019-04-05T15:08:11.338Z,75.51
2019-04-05T15:10:41.321Z,75.76
2019-04-05T15:13:11.002Z,75.27
2019-04-05T15:15:41.033Z,75.08
2019-04-05T15:18:10.937Z,75.12
2019-04-05T15:20:40.564Z,75.20
2019-04-05T15:23:13.903Z,75.20
2019-04-05T15:25:42.020Z,75.40
2019-04-05T15:28:11.548Z,75.49
2019-04-05T15:30:42.391Z,75.61
2019-04-05T15:33:12.415Z,75.80
2019-04-05T15:35:43.968Z,75.93
2019-04-05T15:38:13.791Z,75.95
2019-04-05T15:40:44.797Z,75.92
2019-04-05T15:43:15.201Z,76.13
2019-04-05T15:45:45.965Z,76.25
2019-04-05T15:48:16.495Z,76.56
2019-04-05T15:50:46.525Z,76.43
2019-04-05T15:53:17.810Z,76.24
2019-04-05T15:55:48.471Z,75.96
2019-04-05T15:58:18.473Z,75.71
2019-04-05T16:00:48.804Z,75.52
2019-04-05T16:03:19.130Z,75.59
2019-04-05T16:05:49.641Z,75.54
2019-04-05T16:08:19.495Z,75.42
2019-04-05T16:10:49.237Z,75.51
2019-04-05T16:13:19.145Z,75.60
2019-04-05T16:15:48.904Z,75.46
2019-04-05T16:18:18.657Z,75.12
2019-04-05T16:20:48.426Z,74.93
2019-04-05T16:23:18.300Z,74.66
2019-04-05T16:25:48.765Z,74.39
2019-04-05T16:28:19.198Z,74.32
2019-04-05T16:30:49.537Z,74.57
2019-04-05T16:33:19.451Z,74.57
2019-04-05T16:35:49.185Z,74.50
2019-04-05T16:38:20.073Z,74.44
2019-04-05T16:40:49.788Z,74.13
2019-04-05T16:43:19.565Z,74.24
2019-04-05T16:45:49.481Z,74.33
2019-04-05T16:48:19.151Z,74.44
2019-04-05T16:50:49.001Z,74.63
2019-04-05T16:53:19.557Z,74.81
2019-04-05T16:55:49.639Z,74.99
2019-04-05T16:58:19.595Z,75.04
2019-04-05T17:00:49.594Z,74.98
2019-04-05T17:03:19.065Z,74.96
2019-04-05T17:05:48.731Z,75.09
2019-04-05T17:08:18.243Z,75.30
2019-04-05T17:10:47.874Z,75.48
2019-04-05T17:13:18.051Z,75.45
2019-04-05T17:15:47.797Z,75.63
2019-04-05T17:18:17.281Z,76.05
2019-04-05T17:20:46.716Z,76.12
2019-04-05T17:23:16.747Z,76.27
2019-04-05T17:25:46.429Z,76.47
2019-04-05T17:28:16.421Z,76.70
2019-04-05T17:30:45.861Z,76.88
2019-04-05T17:33:15.664Z,77.03
2019-04-05T17:35:46.109Z,77.23
2019-04-05T17:38:15.841Z,77.29
2019-04-05T17:40:45.321Z,77.28
2019-04-05T17:43:15.031Z,77.34
2019-04-05T17:45:44.642Z,77.46
2019-04-05T17:48:14.207Z,77.58
2019-04-05T17:50:44.150Z,77.77
2019-04-05T17:53:14.676Z,77.89
2019-04-05T17:55:44.784Z,78.06
2019-04-05T17:58:16.568Z,78.35
2019-04-05T18:00:46.360Z,78.60
2019-04-05T18:03:15.917Z,78.82
2019-04-05T18:05:45.551Z,78.86
2019-04-05T18:08:15.218Z,78.98
2019-04-05T18:10:44.846Z,79.22
2019-04-05T18:13:14.281Z,79.37
2019-04-05T18:15:52.233Z,79.48
2019-04-05T18:18:15.282Z,79.53
2019-04-05T18:20:44.831Z,79.64
2019-04-05T18:23:24.160Z,79.68
2019-04-05T18:25:45.664Z,79.77
2019-04-05T18:28:15.244Z,80.06
2019-04-05T18:30:44.915Z,80.19
2019-04-05T18:33:14.423Z,80.26
2019-04-05T18:35:44.283Z,80.33
2019-04-05T18:38:13.879Z,80.50
2019-04-05T18:40:43.626Z,80.63
2019-04-05T18:43:13.106Z,80.81
2019-04-05T18:45:42.784Z,80.97
2019-04-05T18:48:12.265Z,81.68
2019-04-05T18:50:41.819Z,81.92
2019-04-05T18:53:11.625Z,82.28
2019-04-05T18:55:41.657Z,82.31
2019-04-05T18:58:11.622Z,82.44
2019-04-05T19:00:41.114Z,82.71
2019-04-05T19:03:10.977Z,82.90
2019-04-05T19:05:40.759Z,83.04
2019-04-05T19:08:11.497Z,83.26
2019-04-05T19:10:42.016Z,83.41
2019-04-05T19:13:12.770Z,83.67
2019-04-05T19:15:43.721Z,83.97
2019-04-05T19:18:13.346Z,84.16
2019-04-05T19:20:42.864Z,84.33
2019-04-05T19:23:13.283Z,84.44
2019-04-05T19:25:43.007Z,84.64
2019-04-05T19:28:12.789Z,84.81
2019-04-05T19:50:53.717Z,88.17
2019-04-05T19:53:23.226Z,88.40
2019-04-05T19:55:53.032Z,88.47
2019-04-05T19:58:23.037Z,88.50
2019-04-05T20:00:52.780Z,88.30
2019-04-05T20:03:22.668Z,88.52
2019-04-05T20:05:52.262Z,88.20
2019-04-05T20:08:22.034Z,88.15
2019-04-05T20:10:53.541Z,88.36
2019-04-05T20:13:23.179Z,88.19
2019-04-05T20:15:52.623Z,88.20
2019-04-05T20:18:22.387Z,88.19
2019-04-05T20:20:51.860Z,88.29
2019-04-05T20:23:23.093Z,88.51
2019-04-05T20:25:52.768Z,88.66
2019-04-05T20:28:22.320Z,88.99
2019-04-05T20:30:52.283Z,89.46
2019-04-05T20:33:22.133Z,89.21
2019-04-05T20:35:51.802Z,89.37
2019-04-05T20:38:22.186Z,89.28
2019-04-05T20:40:51.900Z,89.30
2019-04-05T20:43:21.400Z,89.38
2019-04-05T20:45:52.640Z,89.37
2019-04-05T20:48:42.215Z,89.39
2019-04-05T20:51:22.356Z,89.57
2019-04-05T20:53:54.888Z,89.37
2019-04-05T20:56:26.651Z,89.52
2019-04-05T20:58:57.681Z,89.71
2019-04-05T21:01:27.105Z,89.57
2019-04-05T21:03:56.855Z,89.64
2019-04-05T21:06:26.297Z,89.56
2019-04-05T21:08:55.822Z,89.70
2019-04-05T21:11:27.172Z,89.77
2019-04-05T21:13:56.434Z,89.79
2019-04-05T21:16:26.734Z,89.86
2019-04-05T21:18:56.545Z,89.93
2019-04-05T21:21:27.484Z,89.91
2019-04-05T21:23:57.042Z,89.91
2019-04-05T21:26:26.625Z,89.92
2019-04-05T21:28:56.084Z,89.92
2019-04-05T21:31:25.587Z,89.94
2019-04-05T21:33:55.128Z,89.95
2019-04-05T21:36:24.630Z,90.02
2019-04-05T21:38:54.343Z,90.03
2019-04-05T21:41:23.819Z,90.05
2019-04-05T21:43:53.419Z,90.07
2019-04-05T21:46:22.865Z,90.10
2019-04-05T21:48:52.430Z,90.25
2019-04-05T21:51:24.633Z,90.29
2019-04-05T21:53:53.907Z,90.43
2019-04-05T21:56:23.460Z,90.45
2019-04-05T21:58:53.280Z,90.59
2019-04-05T22:01:23.351Z,90.68
2019-04-05T22:03:54.558Z,90.69
2019-04-05T22:06:23.998Z,90.73
2019-04-05T22:08:54.016Z,90.68
2019-04-05T22:11:23.575Z,90.59
2019-04-05T22:13:53.122Z,90.52
2019-04-05T22:16:22.665Z,90.61
2019-04-05T22:18:52.494Z,90.69
2019-04-05T22:21:22.288Z,90.70
2019-04-05T22:23:51.913Z,90.68
2019-04-05T22:26:21.338Z,90.71
2019-04-05T22:28:50.780Z,90.65
2019-04-05T22:31:20.345Z,90.70
2019-04-05T22:33:50.075Z,90.71
2019-04-05T22:36:19.507Z,90.75
2019-04-05T22:42:11.886Z,90.83
2019-04-05T22:44:41.706Z,90.93
2019-04-05T22:47:12.363Z,90.97
2019-04-05T22:49:41.972Z,91.12
2019-04-05T22:52:11.480Z,91.18
2019-04-05T22:54:40.968Z,91.24
2019-04-05T22:57:10.511Z,91.25
2019-04-05T22:59:39.952Z,91.26
2019-04-05T23:02:09.435Z,91.31
2019-04-05T23:04:38.885Z,91.33
2019-04-05T23:07:08.321Z,91.36
2019-04-05T23:09:37.862Z,91.42
2019-04-05T23:12:07.301Z,91.52
2019-04-05T23:14:36.755Z,91.52
2019-04-05T23:17:06.228Z,91.49
2019-04-05T23:19:35.733Z,91.50
2019-04-05T23:22:05.353Z,91.55
2019-04-05T23:24:34.818Z,91.67
2019-04-05T23:27:04.268Z,91.75
2019-04-05T23:29:33.823Z,91.76
2019-04-05T23:32:03.267Z,91.74
2019-04-05T23:34:32.741Z,91.76
2019-04-05T23:37:02.211Z,91.76
2019-04-05T23:39:32.905Z,91.78
2019-04-05T23:42:02.705Z,91.82
2019-04-05T23:44:32.201Z,91.87
2019-04-05T23:47:01.681Z,91.94
2019-04-05T23:49:31.164Z,92.03
2019-04-05T23:52:00.602Z,92.06
2019-04-05T23:54:32.315Z,92.04
2019-04-05T23:57:01.826Z,92.04
2019-04-05T23:59:31.736Z,92.04
